Time;durP1;ratioP1;P1;durP2;ratioP2;P2;SDS_P1;SDS_P2;PMS_P1;PMS_P2;Temp;Humidity;BMP_temperature;BMP_pressure;BME280_temperature;BME280_humidity;BME280_pressure;Samples;Min_cycle;Max_cycle;Signal;HPM_P1;HPM_P2
2021/12/29 00:00:21;;;;;;;63.52;34.55;;;;;;;-1.74;78.19;100198.12;1743748;80;21575;-80
2021/12/29 00:02:50;;;;;;;63.52;35.20;;;;;;;-1.73;78.24;100194.73;1743502;82;21238;-79
2021/12/29 00:05:17;;;;;;;61.18;34.55;;;;;;;-1.73;78.20;100201.19;1743910;82;21100;-79
2021/12/29 00:07:43;;;;;;;67.22;36.85;;;;;;;-1.75;78.12;100192.05;1743852;82;21694;-79
2021/12/29 00:10:11;;;;;;;64.37;36.05;;;;;;;-1.73;78.15;100193.45;1743639;80;21670;-79
2021/12/29 00:12:44;;;;;;;58.85;33.78;;;;;;;-1.76;78.08;100184.72;1743701;81;21149;-79
2021/12/29 00:15:09;;;;;;;58.75;33.83;;;;;;;-1.76;78.08;100192.86;1743420;82;21725;-79
2021/12/29 00:17:36;;;;;;;60.95;34.83;;;;;;;-1.79;78.04;100194.83;1743828;82;21541;-79
2021/12/29 00:20:04;;;;;;;62.85;36.23;;;;;;;-1.81;78.01;100189.97;1743874;82;21736;-79
2021/12/29 00:22:30;;;;;;;60.20;35.30;;;;;;;-1.80;78.05;100185.31;1743727;80;21086;-79
2021/12/29 00:24:57;;;;;;;62.38;34.63;;;;;;;-1.80;78.00;100189.59;1743563;82;21081;-79
2021/12/29 00:27:24;;;;;;;61.58;35.92;;;;;;;-1.82;78.07;100189.86;1743569;82;22217;-79
2021/12/29 00:29:50;;;;;;;60.85;35.65;;;;;;;-1.79;78.07;100195.23;1743615;82;22272;-79
2021/12/29 00:32:17;;;;;;;62.90;36.98;;;;;;;-1.81;78.09;100188.67;1744211;81;21761;-79
2021/12/29 00:34:43;;;;;;;58.15;33.58;;;;;;;-1.82;78.04;100189.86;1746763;81;21587;-80
2021/12/29 00:37:10;;;;;;;59.03;35.25;;;;;;;-1.84;78.00;100188.50;1746395;80;21108;-79
2021/12/29 00:39:37;;;;;;;56.60;35.10;;;;;;;-1.83;78.06;100186.80;1746735;82;21081;-80
2021/12/29 00:42:04;;;;;;;62.08;35.70;;;;;;;-1.82;78.03;100185.62;1746656;82;21092;-80
2021/12/29 00:44:32;;;;;;;61.33;35.35;;;;;;;-1.81;78.09;100188.67;1746558;82;21756;-79
2021/12/29 00:46:59;;;;;;;54.75;34.03;;;;;;;-1.82;77.99;100179.54;1746910;82;21574;-87
2021/12/29 00:49:31;;;;;;;61.50;35.08;;;;;;;-1.82;78.09;100184.70;1747241;80;21065;-87
2021/12/29 00:51:54;;;;;;;61.35;35.45;;;;;;;-1.80;78.08;100183.14;1746474;82;21352;-86
2021/12/29 00:54:21;;;;;;;62.67;34.58;;;;;;;-1.79;77.99;100188.38;1747163;82;21070;-84
2021/12/29 00:56:48;;;;;;;57.90;34.65;;;;;;;-1.80;78.00;100186.61;1747255;81;22067;-86
2021/12/29 00:59:14;;;;;;;60.92;35.45;;;;;;;-1.80;77.97;100194.34;1747061;82;21109;-86
2021/12/29 01:01:43;;;;;;;61.83;35.03;;;;;;;-1.79;77.95;100195.23;1746702;82;21050;-87
2021/12/29 01:04:09;;;;;;;55.80;34.55;;;;;;;-1.79;77.94;100199.10;1746815;82;21101;-79
2021/12/29 01:06:36;;;;;;;57.70;33.88;;;;;;;-1.77;77.92;100196.22;1746773;82;21569;-78
2021/12/29 01:09:03;;;;;;;58.95;33.00;;;;;;;-1.78;77.85;100200.91;1746677;82;21803;-79
2021/12/29 01:11:29;;;;;;;55.92;32.70;;;;;;;-1.77;77.89;100199.69;1746595;82;21054;-79
2021/12/29 01:13:56;;;;;;;57.75;34.25;;;;;;;-1.75;77.92;100204.95;1746804;80;21733;-79
2021/12/29 01:19:14;;;;;;;60.35;33.75;;;;;;;-1.79;77.85;100198.70;1747128;82;21074;-78
2021/12/29 01:21:43;;;;;;;62.05;35.40;;;;;;;-1.77;77.81;100194.93;1746874;82;21824;-79
2021/12/29 01:24:10;;;;;;;57.80;34.30;;;;;;;-1.79;77.81;100192.24;1746826;82;21140;-79
2021/12/29 01:26:37;;;;;;;55.25;33.50;;;;;;;-1.76;77.85;100196.73;1746875;82;21097;-79
2021/12/29 01:29:04;;;;;;;60.67;33.83;;;;;;;-1.76;77.81;100191.57;1746798;82;21165;-79
2021/12/29 01:31:31;;;;;;;59.70;35.60;;;;;;;-1.76;77.82;100192.45;1746869;81;21171;-80
2021/12/29 01:33:59;;;;;;;57.78;33.35;;;;;;;-1.76;77.81;100182.14;1744414;81;21737;-79
2021/12/29 01:36:27;;;;;;;62.98;32.93;;;;;;;-1.76;77.79;100182.55;1743878;82;21611;-79
2021/12/29 01:38:53;;;;;;;57.70;32.55;;;;;;;-1.78;77.78;100179.86;1743809;82;21093;-79
2021/12/29 01:41:20;;;;;;;58.75;33.42;;;;;;;-1.78;77.76;100181.55;1744004;82;21222;-77
2021/12/29 01:43:47;;;;;;;56.60;32.28;;;;;;;-1.81;77.76;100177.06;1744259;82;21089;-77
2021/12/29 01:46:13;;;;;;;58.13;33.98;;;;;;;-1.81;77.82;100176.19;1744142;82;21838;-77
2021/12/29 01:48:40;;;;;;;54.60;33.45;;;;;;;-1.82;77.83;100171.43;1743819;82;21070;-77
2021/12/29 01:51:07;;;;;;;54.55;31.55;;;;;;;-1.83;77.82;100170.92;1744034;80;21065;-77
2021/12/29 01:53:34;;;;;;;63.13;34.35;;;;;;;-1.82;77.77;100173.09;1743643;82;21107;-77
2021/12/29 01:56:03;;;;;;;59.60;35.68;;;;;;;-1.84;77.77;100173.39;1711927;82;21658;-78
2021/12/29 01:58:30;;;;;;;57.03;33.73;;;;;;;-1.84;77.79;100179.47;1744049;82;22521;-78
2021/12/29 02:00:59;;;;;;;62.43;34.20;;;;;;;-1.85;77.84;100187.98;1743854;82;21074;-78
2021/12/29 02:03:25;;;;;;;64.45;36.10;;;;;;;-1.82;77.86;100184.70;1743791;82;21665;-78
2021/12/29 02:05:53;;;;;;;57.93;34.23;;;;;;;-1.85;77.77;100182.83;1743881;82;21143;-78
2021/12/29 02:08:23;;;;;;;59.05;33.70;;;;;;;-1.85;77.93;100185.41;1743882;80;21078;-79
2021/12/29 02:10:48;;;;;;;60.85;34.03;;;;;;;-1.83;77.92;100186.80;1743885;82;21794;-79
2021/12/29 02:13:15;;;;;;;54.65;33.38;;;;;;;-1.81;77.89;100190.38;1744112;82;21057;-79
2021/12/29 02:15:41;;;;;;;58.83;33.55;;;;;;;-1.81;77.86;100194.23;1744008;82;21035;-79
2021/12/29 02:18:14;;;;;;;60.12;34.18;;;;;;;-1.83;77.87;100193.25;1743953;81;21585;-79
2021/12/29 02:20:43;;;;;;;58.10;33.20;;;;;;;-1.83;77.86;100190.67;1743949;81;21065;-79
2021/12/29 02:23:20;;;;;;;61.18;34.73;;;;;;;-1.85;77.80;100193.14;1743846;82;21825;-79
2021/12/29 02:25:51;;;;;;;59.95;33.20;;;;;;;-1.86;77.96;100184.92;1743536;82;21086;-79
2021/12/29 02:28:22;;;;;;;61.48;33.55;;;;;;;-1.84;77.98;100183.34;1743931;82;21085;-79
2021/12/29 02:30:49;;;;;;;61.28;34.55;;;;;;;-1.84;77.96;100184.62;1740684;82;21628;-79
2021/12/29 02:33:16;;;;;;;61.48;34.58;;;;;;;-1.84;77.91;100177.27;1748254;81;21058;-79
2021/12/29 02:35:43;;;;;;;65.57;35.17;;;;;;;-1.84;77.91;100178.17;1757262;81;21792;-79
2021/12/29 02:38:35;;;;;;;58.55;32.67;;;;;;;-1.83;77.93;100183.81;1757627;81;21657;-86
2021/12/29 02:41:07;;;;;;;59.60;33.25;;;;;;;-1.84;77.91;100175.97;1757690;80;21160;-86
2021/12/29 02:43:37;;;;;;;50.78;30.60;;;;;;;-1.81;78.00;100180.94;1757974;81;21094;-86
2021/12/29 02:46:02;;;;;;;58.38;33.33;;;;;;;-1.82;77.97;100173.09;1757758;81;21093;-84
2021/12/29 02:48:33;;;;;;;62.43;34.40;;;;;;;-1.82;77.99;100179.17;1757952;81;21740;-85
2021/12/29 02:51:00;;;;;;;65.30;36.15;;;;;;;-1.79;78.09;100177.17;1784469;80;21033;-85
2021/12/29 02:53:27;;;;;;;60.03;35.00;;;;;;;-1.77;78.08;100182.03;1784378;80;21154;-85
2021/12/29 02:55:54;;;;;;;54.93;33.80;;;;;;;-1.75;78.06;100179.15;1784579;80;21174;-84
2021/12/29 02:58:21;;;;;;;60.05;34.88;;;;;;;-1.74;78.06;100175.79;1784382;80;21034;-85
2021/12/29 03:00:48;;;;;;;63.17;35.73;;;;;;;-1.73;78.08;100178.84;1784663;80;22585;-85
2021/12/29 03:03:19;;;;;;;64.90;35.33;;;;;;;-1.72;78.05;100177.19;1784028;80;21038;-87
2021/12/29 03:05:46;;;;;;;61.92;34.25;;;;;;;-1.70;78.12;100183.33;1782763;80;21623;-85
2021/12/29 03:08:13;;;;;;;57.25;32.85;;;;;;;-1.67;78.09;100179.64;1783915;80;21175;-87
2021/12/29 03:10:40;;;;;;;60.63;34.25;;;;;;;-1.67;78.13;100178.35;1784139;80;22136;-86
2021/12/29 03:13:07;;;;;;;56.58;32.88;;;;;;;-1.64;78.19;100179.45;1783853;80;21800;-85
2021/12/29 03:15:35;;;;;;;57.73;33.45;;;;;;;-1.60;78.26;100183.12;1783798;80;21069;-86
2021/12/29 03:18:01;;;;;;;61.75;34.38;;;;;;;-1.59;78.18;100186.20;1784267;80;21612;-86
2021/12/29 03:20:28;;;;;;;57.95;33.65;;;;;;;-1.59;78.12;100181.93;1784161;80;21042;-86
2021/12/29 03:22:54;;;;;;;60.35;33.98;;;;;;;-1.60;78.11;100183.12;1784463;80;21045;-86
2021/12/29 03:25:22;;;;;;;64.22;37.08;;;;;;;-1.61;78.11;100183.52;1784410;80;22572;-86
2021/12/29 03:27:49;;;;;;;59.60;33.83;;;;;;;-1.59;78.14;100183.63;1784692;80;21499;-86
2021/12/29 03:30:16;;;;;;;64.30;36.50;;;;;;;-1.57;78.12;100187.20;1784800;80;21061;-84
2021/12/29 03:32:52;;;;;;;62.65;34.38;;;;;;;-1.60;78.09;100184.41;1784671;80;21045;-88
2021/12/29 03:35:11;;;;;;;62.08;33.98;;;;;;;-1.58;78.12;100191.47;1749743;81;21134;-86
2021/12/29 03:37:38;;;;;;;60.45;34.75;;;;;;;-1.59;78.23;100191.37;1752907;81;22681;-86
2021/12/29 03:40:06;;;;;;;66.22;36.20;;;;;;;-1.57;78.29;100189.78;1752929;80;21089;-86
2021/12/29 03:42:33;;;;;;;62.13;35.50;;;;;;;-1.53;78.37;100193.05;1752989;81;21587;-86
2021/12/29 03:45:00;;;;;;;61.73;34.85;;;;;;;-1.49;78.31;100197.60;1753080;81;21050;-86
2021/12/29 03:47:26;;;;;;;57.93;33.63;;;;;;;-1.47;78.26;100204.16;1752488;80;21077;-78
2021/12/29 03:49:53;;;;;;;63.85;34.53;;;;;;;-1.47;78.29;100205.05;1752523;81;21848;-79
2021/12/29 03:52:20;;;;;;;61.70;35.50;;;;;;;-1.46;78.34;100199.10;1752498;81;21042;-87
2021/12/29 03:54:46;;;;;;;60.80;35.45;;;;;;;-1.44;78.33;100200.50;1752792;81;21022;-79
2021/12/29 03:57:13;;;;;;;59.13;33.98;;;;;;;-1.43;78.34;100197.98;1752619;81;21590;-80
2021/12/29 03:59:40;;;;;;;61.83;34.30;;;;;;;-1.41;78.32;100200.30;1752573;81;21453;-79
2021/12/29 04:02:06;;;;;;;56.20;32.90;;;;;;;-1.40;78.30;100197.31;1752442;81;21737;-79
2021/12/29 04:04:33;;;;;;;61.88;35.98;;;;;;;-1.40;78.33;100190.85;1752436;81;21057;-79
2021/12/29 04:07:00;;;;;;;67.42;36.63;;;;;;;-1.39;78.35;100190.95;1752372;81;21373;-79
2021/12/29 04:09:27;;;;;;;67.60;35.75;;;;;;;-1.38;78.33;100191.84;1752493;81;21511;-79
2021/12/29 04:11:54;;;;;;;66.10;35.40;;;;;;;-1.37;78.38;100191.03;1752434;81;21124;-79
2021/12/29 04:14:25;;;;;;;59.60;35.05;;;;;;;-1.36;78.31;100191.53;1752395;81;21783;-79
2021/12/29 04:16:49;;;;;;;62.40;36.80;;;;;;;-1.33;78.36;100192.11;1751882;80;21010;-78
2021/12/29 04:19:28;;;;;;;63.48;35.75;;;;;;;-1.32;78.32;100192.63;1752357;81;21328;-78
2021/12/29 04:21:46;;;;;;;62.08;35.73;;;;;;;-1.32;78.31;100190.93;1749426;81;21590;-78
2021/12/29 04:24:13;;;;;;;61.83;34.08;;;;;;;-1.32;78.29;100184.88;1752422;81;21605;-78
2021/12/29 04:26:40;;;;;;;64.97;35.83;;;;;;;-1.30;78.38;100184.58;1752417;81;21790;-78
2021/12/29 04:29:07;;;;;;;61.75;34.33;;;;;;;-1.29;78.34;100183.80;1752584;81;21089;-78
2021/12/29 04:31:34;;;;;;;63.68;35.55;;;;;;;-1.30;78.39;100176.42;1752913;81;21057;-84
2021/12/29 04:34:01;;;;;;;57.70;33.98;;;;;;;-1.30;78.28;100183.28;1752937;80;21109;-88
2021/12/29 04:36:28;;;;;;;66.33;38.48;;;;;;;-1.29;78.37;100181.22;1753078;81;21101;-86
2021/12/29 04:38:55;;;;;;;61.92;37.60;;;;;;;-1.29;78.36;100185.09;1753117;81;21823;-86
2021/12/29 04:41:21;;;;;;;63.05;36.20;;;;;;;-1.30;78.36;100184.17;1753043;81;21597;-86
2021/12/29 04:43:48;;;;;;;62.27;35.75;;;;;;;-1.29;78.36;100183.80;1752952;81;21077;-85
2021/12/29 04:46:18;;;;;;;63.90;36.35;;;;;;;-1.27;78.39;100186.07;1758730;81;39007;-85
2021/12/29 04:48:52;;;;;;;64.35;34.95;;;;;;;-1.27;78.39;100188.25;1752585;80;21590;-84
2021/12/29 04:51:24;;;;;;;60.50;35.75;;;;;;;-1.28;78.34;100187.73;1753227;79;22391;-86
2021/12/29 04:53:45;;;;;;;57.95;34.08;;;;;;;-1.28;78.42;100189.44;1751854;81;21140;-86
2021/12/29 04:56:11;;;;;;;54.80;34.05;;;;;;;-1.28;78.40;100186.85;1752786;81;21003;-88
2021/12/29 04:58:38;;;;;;;63.58;36.28;;;;;;;-1.31;78.37;100183.69;1752947;81;21101;-87
2021/12/29 05:01:05;;;;;;;62.62;36.17;;;;;;;-1.30;78.39;100185.45;1752936;81;21614;-86
2021/12/29 05:03:31;;;;;;;63.70;36.30;;;;;;;-1.27;78.47;100176.63;1752967;81;22584;-86
2021/12/29 05:08:33;;;;;;;57.20;35.15;;;;;;;-1.27;78.43;100175.34;1753109;81;21148;-86
2021/12/29 05:11:06;;;;;;;62.62;36.15;;;;;;;-1.30;78.28;100179.00;1752853;81;21543;-86
2021/12/29 05:13:35;;;;;;;53.02;32.30;;;;;;;-1.30;78.42;100175.54;1734338;81;21085;-85
2021/12/29 05:16:02;;;;;;;61.73;35.20;;;;;;;-1.33;78.37;100170.17;1753127;81;21906;-87
2021/12/29 05:18:31;;;;;;;60.78;36.85;;;;;;;-1.33;78.39;100176.63;1753440;81;21074;-86
2021/12/29 05:20:58;;;;;;;61.23;36.68;;;;;;;-1.33;78.43;100172.75;1753343;81;21050;-86
2021/12/29 05:23:25;;;;;;;65.50;37.65;;;;;;;-1.32;78.48;100174.14;1753414;81;21077;-88
2021/12/29 05:25:53;;;;;;;65.12;37.28;;;;;;;-1.33;78.46;100172.75;1759488;81;21050;-86
2021/12/29 05:28:19;;;;;;;59.85;35.17;;;;;;;-1.35;78.45;100164.94;1753582;81;22189;-86
2021/12/29 05:30:47;;;;;;;66.65;36.77;;;;;;;-1.36;78.43;100173.47;1753133;81;21653;-86
2021/12/29 05:33:14;;;;;;;59.33;35.30;;;;;;;-1.37;78.51;100171.29;1753436;81;21136;-85
2021/12/29 05:35:40;;;;;;;66.20;36.53;;;;;;;-1.35;78.57;100179.14;1780896;80;21043;-86
2021/12/29 05:38:07;;;;;;;65.75;36.90;;;;;;;-1.34;78.58;100180.02;1784675;80;21030;-85
2021/12/29 05:40:34;;;;;;;64.27;36.10;;;;;;;-1.33;78.56;100182.70;1784911;80;21907;-87
2021/12/29 05:43:00;;;;;;;64.67;35.48;;;;;;;-1.31;78.67;100184.98;1784383;80;21104;-87
2021/12/29 05:45:28;;;;;;;61.18;36.13;;;;;;;-1.30;78.62;100184.17;1784509;80;21054;-88
2021/12/29 05:47:55;;;;;;;68.97;38.55;;;;;;;-1.27;78.71;100188.66;1784501;80;21574;-87
2021/12/29 05:50:24;;;;;;;73.28;40.75;;;;;;;-1.26;78.65;100190.42;1784389;80;21061;-85
2021/12/29 05:52:51;;;;;;;65.97;35.40;;;;;;;-1.26;78.68;100182.30;1784682;80;21211;-86
2021/12/29 05:55:18;;;;;;;75.72;41.90;;;;;;;-1.23;78.64;100190.63;1784640;80;21488;-86
2021/12/29 05:57:44;;;;;;;68.50;38.45;;;;;;;-1.24;78.63;100196.20;1784480;80;21350;-87
2021/12/29 06:00:14;;;;;;;71.95;39.13;;;;;;;-1.24;78.65;100194.91;1784650;80;21535;-86
2021/12/29 06:02:41;;;;;;;77.10;40.65;;;;;;;-1.20;78.72;100200.75;1784566;80;21125;-86
2021/12/29 06:05:08;;;;;;;71.85;40.65;;;;;;;-1.22;78.59;100200.14;1784402;80;21742;-87
2021/12/29 06:07:35;;;;;;;65.52;39.55;;;;;;;-1.21;78.72;100202.83;1784185;80;21127;-87
2021/12/29 06:10:03;;;;;;;71.45;41.28;;;;;;;-1.21;78.61;100206.70;1779695;80;21042;-86
2021/12/29 06:12:29;;;;;;;60.83;36.63;;;;;;;-1.24;78.64;100204.31;1774071;80;21102;-87
2021/12/29 06:14:56;;;;;;;71.42;39.83;;;;;;;-1.24;78.56;100208.19;1774221;80;21106;-87
2021/12/29 06:17:22;;;;;;;67.27;38.33;;;;;;;-1.28;78.62;100207.51;1774787;80;21664;-88
2021/12/29 06:19:49;;;;;;;73.67;41.45;;;;;;;-1.27;78.78;100206.73;1774666;80;21046;-87
2021/12/29 06:22:16;;;;;;;77.47;43.23;;;;;;;-1.24;78.78;100209.11;1773632;80;21121;-81
2021/12/29 06:24:43;;;;;;;85.75;45.63;;;;;;;-1.23;78.75;100217.33;1773271;80;21060;-79
2021/12/29 06:27:09;;;;;;;81.17;43.70;;;;;;;-1.23;78.77;100219.92;1773233;80;21058;-79
2021/12/29 06:29:36;;;;;;;87.20;46.77;;;;;;;-1.22;78.76;100220.80;1772973;80;22602;-79
2021/12/29 06:32:04;;;;;;;86.02;46.48;;;;;;;-1.19;78.84;100223.18;1770755;80;21106;-80
2021/12/29 06:34:30;;;;;;;82.20;43.30;;;;;;;-1.18;78.80;100227.56;1776396;80;21133;-79
2021/12/29 06:37:03;;;;;;;87.37;46.50;;;;;;;-1.18;78.68;100228.86;1783436;80;21232;-80
2021/12/29 06:39:29;;;;;;;84.80;45.10;;;;;;;-1.19;78.73;100228.75;1783275;80;21119;-80
2021/12/29 06:41:55;;;;;;;80.75;44.48;;;;;;;-1.19;78.75;100228.34;1783635;80;21748;-82
2021/12/29 06:44:22;;;;;;;83.25;44.42;;;;;;;-1.18;78.75;100234.42;1783546;80;21069;-81
2021/12/29 06:46:49;;;;;;;87.17;46.80;;;;;;;-1.17;78.83;100231.03;1755583;80;21073;-80
2021/12/29 06:49:16;;;;;;;79.27;42.40;;;;;;;-1.17;78.83;100235.79;1752935;80;21568;-81
2021/12/29 06:51:42;;;;;;;82.53;46.53;;;;;;;-1.13;78.81;100239.87;1752536;81;21566;-80
2021/12/29 06:54:09;;;;;;;90.92;49.48;;;;;;;-1.13;78.75;100237.28;1752844;81;21327;-80
2021/12/29 06:56:36;;;;;;;86.25;48.10;;;;;;;-1.13;78.79;100241.16;1752878;81;21204;-78
2021/12/29 06:59:02;;;;;;;91.10;50.20;;;;;;;-1.13;78.78;100245.91;1782071;78;21531;-79
2021/12/29 07:01:29;;;;;;;99.00;51.42;;;;;;;-1.12;78.75;100247.72;1783793;80;21029;-79
2021/12/29 07:03:55;;;;;;;111.80;56.80;;;;;;;-1.12;78.75;100251.59;1784080;80;21062;-78
2021/12/29 07:06:22;;;;;;;94.25;51.85;;;;;;;-1.13;78.80;100248.50;1784049;80;21747;-79
2021/12/29 07:08:50;;;;;;;99.70;52.62;;;;;;;-1.09;78.92;100254.38;1752679;80;21018;-78
2021/12/29 07:11:17;;;;;;;92.15;50.20;;;;;;;-1.06;78.87;100253.67;1783712;80;21102;-79
2021/12/29 07:13:47;;;;;;;101.00;54.38;;;;;;;-1.04;78.90;100258.13;1783901;80;21403;-80
2021/12/29 07:16:14;;;;;;;91.87;53.58;;;;;;;-1.01;78.92;100257.04;1784146;80;21029;-80
2021/12/29 07:18:41;;;;;;;82.45;45.92;;;;;;;-0.99;78.88;100259.31;1784246;80;21676;-80
2021/12/29 07:21:07;;;;;;;70.60;40.12;;;;;;;-0.94;78.93;100257.41;1784001;80;21030;-81
2021/12/29 07:23:34;;;;;;;75.30;41.15;;;;;;;-0.93;78.85;100262.69;1784129;80;21053;-80
2021/12/29 07:26:01;;;;;;;69.82;39.98;;;;;;;-0.92;78.85;100264.48;1784033;80;21713;-81
2021/12/29 07:28:27;;;;;;;76.30;43.08;;;;;;;-0.90;78.85;100264.19;1783882;80;21061;-80
2021/12/29 07:30:54;;;;;;;95.60;53.48;;;;;;;-0.88;78.85;100265.55;1784020;80;21814;-81
2021/12/29 07:33:20;;;;;;;71.80;41.68;;;;;;;-0.85;78.84;100274.79;1783968;80;21096;-80
2021/12/29 07:35:47;;;;;;;77.82;43.35;;;;;;;-0.82;78.91;100273.70;1761734;80;21129;-80
2021/12/29 07:38:14;;;;;;;72.65;42.20;;;;;;;-0.80;78.86;100279.45;1750282;80;21179;-80
2021/12/29 07:40:40;;;;;;;75.75;40.75;;;;;;;-0.77;78.89;100285.20;1750134;81;21177;-79
2021/12/29 07:43:07;;;;;;;74.90;41.08;;;;;;;-0.72;78.89;100281.63;1750193;81;21729;-80
2021/12/29 07:45:34;;;;;;;75.12;42.98;;;;;;;-0.70;78.83;100282.61;1749999;81;21086;-79
2021/12/29 07:48:02;;;;;;;79.03;42.67;;;;;;;-0.66;78.84;100285.88;1750324;81;21070;-80
2021/12/29 07:50:29;;;;;;;73.55;39.20;;;;;;;-0.64;78.77;100289.44;1750164;81;21932;-79
2021/12/29 07:52:56;;;;;;;74.67;41.98;;;;;;;-0.64;78.78;100293.32;1749926;81;21650;-87
2021/12/29 07:55:23;;;;;;;78.35;40.25;;;;;;;-0.62;78.79;100295.22;1752719;80;21810;-87
2021/12/29 07:57:49;;;;;;;84.00;45.23;;;;;;;-0.58;78.86;100293.73;1749915;81;21061;-86
2021/12/29 08:00:23;;;;;;;79.22;43.60;;;;;;;-0.55;78.82;100290.42;1750738;81;21029;-86
2021/12/29 08:02:52;;;;;;;86.28;47.17;;;;;;;-0.54;78.69;100287.05;1750749;81;21604;-87
2021/12/29 08:05:20;;;;;;;91.32;47.58;;;;;;;-0.57;78.55;100281.27;1750732;80;21175;-87
2021/12/29 08:07:47;;;;;;;87.27;46.40;;;;;;;-0.59;78.62;100290.22;1750778;81;21756;-87
2021/12/29 08:10:13;;;;;;;91.20;49.67;;;;;;;-0.59;78.74;100287.64;1750670;81;21530;-88
2021/12/29 08:12:40;;;;;;;86.17;45.35;;;;;;;-0.54;78.82;100285.77;1750835;81;21117;-87
2021/12/29 08:15:07;;;;;;;88.12;46.25;;;;;;;-0.52;78.83;100291.92;1750397;81;21132;-87
2021/12/29 08:17:34;;;;;;;95.40;48.38;;;;;;;-0.52;78.79;100284.16;1750556;81;21468;-86
2021/12/29 08:20:01;;;;;;;94.45;47.17;;;;;;;-0.50;78.78;100283.85;1750483;81;21736;-87
2021/12/29 08:22:28;;;;;;;87.95;46.40;;;;;;;-0.50;78.72;100281.27;1750275;81;21528;-87
2021/12/29 08:24:55;;;;;;;90.17;48.90;;;;;;;-0.49;78.81;100281.74;1750533;81;21132;-87
2021/12/29 08:27:22;;;;;;;91.17;49.75;;;;;;;-0.48;78.80;100283.14;1750387;81;21038;-88
2021/12/29 08:29:48;;;;;;;91.20;48.45;;;;;;;-0.42;78.90;100285.20;1750331;81;21127;-87
2021/12/29 08:32:15;;;;;;;91.80;46.88;;;;;;;-0.38;78.86;100284.59;1750367;81;21726;-88
2021/12/29 08:34:42;;;;;;;93.52;46.92;;;;;;;-0.39;78.76;100287.98;1750242;80;21094;-87
2021/12/29 08:37:08;;;;;;;87.40;45.83;;;;;;;-0.37;78.78;100286.80;1752782;81;21648;-91
2021/12/29 08:39:38;;;;;;;92.30;49.73;;;;;;;-0.35;78.78;100287.38;1752743;81;21152;-80
2021/12/29 08:42:11;;;;;;;99.70;50.73;;;;;;;-0.32;78.86;100281.48;1752637;80;21148;-79
2021/12/29 08:44:38;;;;;;;88.50;45.70;;;;;;;-0.29;78.89;100277.80;1752402;81;27508;-80
2021/12/29 08:47:08;;;;;;;94.00;49.18;;;;;;;-0.26;78.85;100281.88;1752157;80;21124;-79
2021/12/29 08:49:33;;;;;;;88.65;48.05;;;;;;;-0.24;78.80;100289.33;1751815;80;21133;-79
2021/12/29 08:52:00;;;;;;;95.12;47.98;;;;;;;-0.25;78.74;100296.16;1752239;80;21089;-80
2021/12/29 08:54:27;;;;;;;83.85;43.05;;;;;;;-0.24;78.74;100300.96;1752247;81;21069;-79
2021/12/29 08:56:54;;;;;;;85.70;43.75;;;;;;;-0.18;78.86;100305.61;1752277;81;22972;-79
2021/12/29 08:59:21;;;;;;;92.35;46.92;;;;;;;-0.16;78.81;100310.48;1751978;80;21582;-79
2021/12/29 09:01:48;;;;;;;90.07;44.73;;;;;;;-0.15;78.85;100312.25;1751961;81;21073;-79
2021/12/29 09:04:16;;;;;;;91.75;46.42;;;;;;;-0.13;78.89;100311.94;1752104;80;21099;-79
2021/12/29 09:06:42;;;;;;;80.17;43.42;;;;;;;-0.12;78.94;100313.73;1752250;81;21586;-80
2021/12/29 09:09:09;;;;;;;85.95;43.40;;;;;;;-0.11;78.85;100311.25;1752234;81;21725;-77
2021/12/29 09:11:36;;;;;;;88.45;44.77;;;;;;;-0.14;78.88;100309.76;1752135;80;21632;-77
2021/12/29 09:14:03;;;;;;;96.72;48.28;;;;;;;-0.11;78.96;100318.09;1752275;80;21059;-77
2021/12/29 09:16:30;;;;;;;105.45;53.85;;;;;;;-0.13;79.01;100317.11;1752226;81;21069;-78
2021/12/29 09:18:56;;;;;;;114.55;56.90;;;;;;;-0.11;78.99;100319.39;1752336;80;21088;-77
2021/12/29 09:21:23;;;;;;;97.75;49.33;;;;;;;-0.11;79.03;100320.68;1752330;81;21684;-78
2021/12/29 09:23:49;;;;;;;110.50;51.83;;;;;;;-0.09;79.03;100320.41;1752354;81;21614;-78
2021/12/29 09:26:16;;;;;;;101.35;50.30;;;;;;;-0.08;79.07;100316.59;1752285;81;21152;-79
2021/12/29 09:28:44;;;;;;;107.52;51.33;;;;;;;-0.05;79.04;100315.49;1752198;81;21054;-79
2021/12/29 09:31:11;;;;;;;104.58;49.35;;;;;;;-0.03;79.05;100312.59;1752485;81;21096;-79
2021/12/29 09:33:38;;;;;;;105.67;50.33;;;;;;;-0.02;79.03;100308.30;1752403;80;21212;-79
2021/12/29 09:36:05;;;;;;;102.80;50.58;;;;;;;0.01;79.07;100308.50;1752283;80;21116;-79
2021/12/29 09:38:38;;;;;;;114.42;52.90;;;;;;;0.05;79.04;100313.45;1752210;81;21104;-79
2021/12/29 09:41:10;;;;;;;104.20;51.02;;;;;;;0.06;79.00;100310.09;1733307;81;21178;-79
2021/12/29 09:43:36;;;;;;;104.78;48.52;;;;;;;0.04;78.91;100302.59;1752060;81;21129;-80
2021/12/29 09:46:05;;;;;;;107.25;50.65;;;;;;;0.07;78.96;100304.97;1751812;80;21877;-79
2021/12/29 09:48:31;;;;;;;101.62;50.73;;;;;;;0.09;78.97;100305.95;1751655;81;21093;-79
2021/12/29 09:50:58;;;;;;;106.67;50.75;;;;;;;0.09;78.90;100304.66;1751723;81;21081;-80
2021/12/29 09:53:24;;;;;;;117.85;56.55;;;;;;;0.09;78.87;100309.84;1751606;80;21054;-79
2021/12/29 09:55:51;;;;;;;113.03;55.75;;;;;;;0.10;78.89;100302.58;1751855;81;21097;-78
2021/12/29 09:58:18;;;;;;;114.57;54.63;;;;;;;0.09;78.83;100311.13;1751847;81;21732;-79
2021/12/29 10:00:54;;;;;;;112.97;53.60;;;;;;;0.12;78.97;100315.62;1752042;81;21549;-80
2021/12/29 10:03:21;;;;;;;103.10;51.55;;;;;;;0.17;78.99;100309.91;1752141;81;21077;-79
2021/12/29 10:05:51;;;;;;;98.12;49.95;;;;;;;0.24;79.04;100312.44;1752244;81;21090;-80
2021/12/29 10:08:30;;;;;;;101.67;50.73;;;;;;;0.27;78.89;100315.63;1752151;81;21120;-80
2021/12/29 10:11:01;;;;;;;108.47;53.02;;;;;;;0.31;78.96;100317.59;1752233;80;21757;-80
2021/12/29 10:13:32;;;;;;;107.85;52.58;;;;;;;0.33;78.90;100313.39;1752119;81;21539;-80
2021/12/29 10:16:06;;;;;;;106.52;52.62;;;;;;;0.27;78.87;100297.52;1752135;81;21101;-80
2021/12/29 10:18:34;;;;;;;108.42;51.92;;;;;;;0.36;78.87;100313.59;1752323;81;21112;-80
2021/12/29 10:21:05;;;;;;;112.62;53.48;;;;;;;0.38;78.90;100316.75;1752347;81;21630;-80
2021/12/29 10:23:37;;;;;;;112.72;55.08;;;;;;;0.41;78.84;100317.31;1752236;81;22563;-79
2021/12/29 10:26:17;;;;;;;105.07;51.42;;;;;;;0.43;78.85;100320.88;1752160;81;21167;-79
2021/12/29 10:28:48;;;;;;;105.80;51.60;;;;;;;0.44;78.79;100324.39;1752452;81;21089;-79
2021/12/29 10:31:20;;;;;;;122.62;66.28;;;;;;;0.46;78.80;100321.48;1752343;81;21553;-78
2021/12/29 10:33:55;;;;;;;106.17;52.93;;;;;;;0.52;78.89;100322.72;1752440;80;21097;-79
2021/12/29 10:36:34;;;;;;;101.87;50.85;;;;;;;0.53;78.88;100323.22;1765550;80;21779;-83
2021/12/29 10:39:12;;;;;;;99.07;50.45;;;;;;;0.55;78.82;100315.14;1783224;80;21041;-78
2021/12/29 10:42:02;;;;;;;95.42;48.65;;;;;;;0.54;78.65;100318.52;1783670;80;21117;-80
2021/12/29 10:44:43;;;;;;;88.22;46.42;;;;;;;0.55;78.66;100315.14;1783641;80;21041;-78
2021/12/29 10:47:16;;;;;;;101.40;52.00;;;;;;;0.56;78.61;100312.14;1783284;80;21558;-79
2021/12/29 10:50:03;;;;;;;91.90;49.25;;;;;;;0.56;78.60;100314.73;1783495;80;21749;-79
2021/12/29 10:52:47;;;;;;;102.53;52.53;;;;;;;0.54;78.53;100313.34;1762865;80;21062;-79
2021/12/29 10:55:33;;;;;;;93.85;46.75;;;;;;;0.57;78.62;100313.94;1778934;80;21037;-78
2021/12/29 10:58:05;;;;;;;86.63;45.83;;;;;;;0.58;78.66;100314.41;1783462;80;21049;-78
2021/12/29 11:00:31;;;;;;;87.82;45.85;;;;;;;0.58;78.67;100310.52;1751066;81;21554;-79
2021/12/29 11:03:16;;;;;;;91.92;48.13;;;;;;;0.61;78.65;100315.02;1750950;81;21752;-79
2021/12/29 11:05:48;;;;;;;89.10;47.38;;;;;;;0.63;78.76;100316.88;1748868;81;21057;-79
2021/12/29 11:08:18;;;;;;;88.87;46.42;;;;;;;0.66;78.70;100316.17;1751057;81;22273;-80
2021/12/29 11:10:45;;;;;;;92.92;45.92;;;;;;;0.62;78.68;100315.48;1750752;81;20979;-79
2021/12/29 11:13:12;;;;;;;93.75;48.58;;;;;;;0.65;78.79;100318.27;1751118;81;21065;-78
2021/12/29 11:15:41;;;;;;;84.20;44.18;;;;;;;0.65;78.78;100322.15;1750860;81;21785;-78
2021/12/29 11:18:10;;;;;;;87.92;46.35;;;;;;;0.64;78.73;100317.38;1750629;81;21589;-77